createdAt,value
2023-02-26T00:00:00.000Z,82
2023-02-26T00:15:00.000Z,82.6
2023-02-26T00:30:00.000Z,82.63
2023-02-26T00:45:00.000Z,82.29
2023-02-26T01:00:00.000Z,82.94
2023-02-26T01:15:00.000Z,82.55
2023-02-26T01:30:00.000Z,82.36
2023-02-26T01:45:00.000Z,82.84
2023-02-26T02:00:00.000Z,82.72
2023-02-26T02:15:00.000Z,82.62
2023-02-26T02:30:00.000Z,82.58
2023-02-26T02:45:00.000Z,82.5
2023-02-26T03:00:00.000Z,82.45
2023-02-26T03:15:00.000Z,82.37
2023-02-26T03:30:00.000Z,82.23
2023-02-26T03:45:00.000Z,82.29
2023-02-26T04:00:00.000Z,82.19
2023-02-26T04:15:00.000Z,81.79
2023-02-26T04:30:00.000Z,80.89
2023-02-26T04:45:00.000Z,79.95
2023-02-26T05:00:00.000Z,79.04
2023-02-26T05:15:00.000Z,79.52
2023-02-26T05:30:00.000Z,79.91
2023-02-26T05:45:00.000Z,79.92
2023-02-26T06:00:00.000Z,80.2
2023-02-26T06:15:00.000Z,79.74
2023-02-26T06:30:00.000Z,79.54
2023-02-26T06:45:00.000Z,79.12
2023-02-26T07:00:00.000Z,78.81
2023-02-26T07:15:00.000Z,79.1
2023-02-26T07:30:00.000Z,79.16
2023-02-26T07:45:00.000Z,79.23
2023-02-26T08:00:00.000Z,78.42
2023-02-26T08:15:00.000Z,77.32
2023-02-26T08:30:00.000Z,73.23
2023-02-26T08:45:00.000Z,70.48
2023-02-26T09:00:00.000Z,65.06
2023-02-26T09:15:00.000Z,68.47
2023-02-26T09:30:00.000Z,67.32
2023-02-26T09:45:00.000Z,60.1
2023-02-26T10:00:00.000Z,59.07
2023-02-26T10:15:00.000Z,56.88
2023-02-26T10:30:00.000Z,62.25
2023-02-26T10:45:00.000Z,66.69
2023-02-26T11:00:00.000Z,72.52
2023-02-26T11:15:00.000Z,73.02
2023-02-26T11:30:00.000Z,74.29
2023-02-26T11:45:00.000Z,73.74
2023-02-26T12:00:00.000Z,71.69
2023-02-26T12:15:00.000Z,69.68
2023-02-26T12:30:00.000Z,66.98
2023-02-26T12:45:00.000Z,64.75
2023-02-26T13:00:00.000Z,61.44
2023-02-26T13:15:00.000Z,62.08
2023-02-26T13:30:00.000Z,61.88
2023-02-26T13:45:00.000Z,58.9
2023-02-26T14:00:00.000Z,62.28
2023-02-26T14:15:00.000Z,65.66
2023-02-26T14:30:00.000Z,68.51
2023-02-26T14:45:00.000Z,76.85
2023-02-26T15:00:00.000Z,78.58
2023-02-26T15:15:00.000Z,77.19
2023-02-26T15:30:00.000Z,76.72
2023-02-26T15:45:00.000Z,78.37
2023-02-26T16:00:00.000Z,77.14
2023-02-26T16:15:00.000Z,74.63
2023-02-26T16:30:00.000Z,72.93
2023-02-26T16:45:00.000Z,74.32
2023-02-26T17:00:00.000Z,74.38
2023-02-26T17:15:00.000Z,75.12
2023-02-26T17:30:00.000Z,74.44
2023-02-26T17:45:00.000Z,72.59
2023-02-26T18:00:00.000Z,71.45
2023-02-26T18:15:00.000Z,70.29
2023-02-26T18:30:00.000Z,71.99
2023-02-26T18:45:00.000Z,71.71
2023-02-26T19:00:00.000Z,70.71
2023-02-26T19:15:00.000Z,71.95
2023-02-26T19:30:00.000Z,71.97
2023-02-26T19:45:00.000Z,71.48
2023-02-26T20:00:00.000Z,71.2
2023-02-26T20:15:00.000Z,71.71
2023-02-26T20:30:00.000Z,72.15
2023-02-26T20:45:00.000Z,73
2023-02-26T21:00:00.000Z,72.69
2023-02-26T21:15:00.000Z,72.29
2023-02-26T21:30:00.000Z,72.11
2023-02-26T21:45:00.000Z,72.41
2023-02-26T22:00:00.000Z,71.35
2023-02-26T22:15:00.000Z,71.26
2023-02-26T22:30:00.000Z,71.55
2023-02-26T22:45:00.000Z,71.56
2023-02-26T23:00:00.000Z,71.7
2023-02-26T23:15:00.000Z,71.57
2023-02-26T23:30:00.000Z,71.54
2023-02-26T23:45:00.000Z,71.63
